Time;durP1;ratioP1;P1;durP2;ratioP2;P2;SDS_P1;SDS_P2;PMS_P1;PMS_P2;Temp;Humidity;BMP_temperature;BMP_pressure;BME280_temperature;BME280_humidity;BME280_pressure;Samples;Min_cycle;Max_cycle;Signal;HPM_P1;HPM_P2
2023/05/26 00:09:53;;;;;;;18.83;8.63;;;;;;;18.40;100.00;100104.34;31611799;28;20412;-80
2023/05/26 00:24:56;;;;;;;13.73;7.20;;;;;;;18.19;100.00;100099.19;31624287;28;20135;-81
2023/05/26 00:39:58;;;;;;;14.73;8.50;;;;;;;18.02;100.00;100098.84;31634317;28;20055;-80
2023/05/26 00:55:01;;;;;;;21.13;10.13;;;;;;;17.93;100.00;100088.69;31612842;28;20044;-80
2023/05/26 01:10:04;;;;;;;24.57;10.97;;;;;;;17.84;100.00;100079.75;31608452;28;20055;-80
2023/05/26 01:25:31;;;;;;;19.98;10.70;;;;;;;17.68;100.00;100080.94;31643770;28;20051;-80
2023/05/26 01:40:34;;;;;;;54.20;28.00;;;;;;;17.72;100.00;100103.44;31643880;28;20109;-80
2023/05/26 01:55:38;;;;;;;28.33;13.63;;;;;;;17.89;100.00;100093.59;31582817;28;20052;-80
2023/05/26 02:10:40;;;;;;;28.37;14.23;;;;;;;17.98;100.00;100090.78;31605722;28;20732;-81
2023/05/26 02:25:42;;;;;;;24.88;13.10;;;;;;;18.01;100.00;100078.84;31588080;28;20139;-80
2023/05/26 02:40:44;;;;;;;21.30;12.40;;;;;;;18.09;100.00;100094.97;31611457;28;20044;-80
2023/05/26 02:55:46;;;;;;;66.20;16.55;;;;;;;18.08;100.00;100088.72;31599527;28;20055;-80
2023/05/26 03:10:48;;;;;;;33.67;14.23;;;;;;;18.22;100.00;100098.22;31608312;28;20048;-80
2023/05/26 03:26:11;;;;;;;38.33;13.60;;;;;;;18.04;100.00;100105.38;31616560;28;20052;-80
2023/05/26 03:41:13;;;;;;;29.98;14.00;;;;;;;18.18;100.00;100108.66;31593280;28;20060;-79
2023/05/26 03:56:15;;;;;;;25.73;13.77;;;;;;;18.29;100.00;100101.38;31631004;28;20052;-81
2023/05/26 04:11:17;;;;;;;28.77;13.15;;;;;;;18.50;100.00;100105.00;31585962;28;20089;-80
2023/05/26 04:26:21;;;;;;;27.70;13.38;;;;;;;19.24;100.00;100110.50;31626431;28;20063;-80
2023/05/26 04:41:23;;;;;;;29.10;11.27;;;;;;;19.93;100.00;100106.22;31630764;28;20040;-80
2023/05/26 04:56:26;;;;;;;22.05;10.02;;;;;;;20.92;100.00;100113.28;31643631;28;20087;-81
2023/05/26 05:11:28;;;;;;;25.23;13.68;;;;;;;21.78;100.00;100120.41;31625563;28;20505;-79
2023/05/26 05:26:30;;;;;;;33.95;13.50;;;;;;;22.41;100.00;100122.94;31614397;28;20055;-79
2023/05/26 05:41:32;;;;;;;25.17;11.93;;;;;;;23.23;100.00;100123.50;31602882;28;20052;-79
2023/05/26 05:56:34;;;;;;;22.20;11.47;;;;;;;23.92;100.00;100114.53;31597161;28;20489;-79
2023/05/26 06:11:36;;;;;;;27.70;15.00;;;;;;;24.61;100.00;100098.56;31595732;28;20051;-78
2023/05/26 06:26:38;;;;;;;29.07;13.37;;;;;;;24.97;100.00;100101.34;31586630;28;20062;-76
2023/05/26 06:41:40;;;;;;;30.70;14.87;;;;;;;25.66;100.00;100109.28;31578106;28;20083;-77
2023/05/26 06:56:42;;;;;;;33.00;15.80;;;;;;;26.31;100.00;100125.66;31571972;28;20079;-78
2023/05/26 07:11:46;;;;;;;;;;;;;;;26.79;100.00;100138.63;31603379;28;20044;-77
2023/05/26 07:26:48;;;;;;;21.35;8.75;;;;;;;27.14;100.00;100143.16;31573456;28;20006;-77
2023/05/26 07:41:51;;;;;;;15.75;5.88;;;;;;;27.71;100.00;100145.69;31586468;28;20052;-77
2023/05/26 07:56:53;;;;;;;12.60;7.40;;;;;;;28.33;100.00;100161.97;31596204;28;20143;-85
2023/05/26 08:11:55;;;;;;;10.02;6.00;;;;;;;27.81;100.00;100163.53;31600478;28;20048;-75
2023/05/26 08:26:57;;;;;;;14.45;4.25;;;;;;;28.92;100.00;100128.91;31629112;28;20052;-83
2023/05/26 08:42:12;;;;;;;11.35;4.35;;;;;;;29.29;96.53;100108.88;31640480;28;20113;-80
2023/05/26 08:57:16;;;;;;;12.00;3.17;;;;;;;30.22;71.40;100088.50;31614094;28;20048;-82
2023/05/26 09:12:18;;;;;;;9.95;3.35;;;;;;;29.79;78.59;100067.59;31620490;28;20429;-77
2023/05/26 09:27:23;;;;;;;10.38;4.40;;;;;;;30.81;63.74;100053.50;31614628;28;20095;-76
2023/05/26 09:42:29;;;;;;;13.98;3.97;;;;;;;31.11;63.18;100040.78;31610073;28;20148;-77
2023/05/26 09:57:35;;;;;;;8.07;3.03;;;;;;;32.02;57.40;100029.25;31615855;28;20064;-78
2023/05/26 10:12:38;;;;;;;11.63;3.90;;;;;;;31.55;59.08;100032.81;31601392;28;20139;-76
2023/05/26 10:27:52;;;;;;;8.27;3.15;;;;;;;32.97;53.81;100016.97;31591058;28;20083;-79
2023/05/26 10:43:12;;;;;;;10.70;3.05;;;;;;;32.87;53.92;100008.44;31595207;28;20047;-76
2023/05/26 10:58:33;;;;;;;8.40;2.73;;;;;;;30.25;58.95;99997.78;31591717;28;20148;-78
2023/05/26 11:13:42;;;;;;;7.93;3.67;;;;;;;31.78;56.82;99976.63;31602369;28;20570;-77
2023/05/26 11:28:45;;;;;;;10.65;3.33;;;;;;;30.78;58.14;99962.16;31590981;28;20171;-78
2023/05/26 11:43:47;;;;;;;6.65;3.08;;;;;;;28.92;71.15;99964.81;31585388;28;20056;-78
2023/05/26 11:58:54;;;;;;;7.25;3.67;;;;;;;29.02;71.93;99953.91;31593186;28;20152;-77
2023/05/26 12:14:05;;;;;;;7.45;3.28;;;;;;;28.57;77.21;99957.09;31592459;28;20708;-77
2023/05/26 12:29:08;;;;;;;8.10;3.23;;;;;;;28.51;73.07;99960.03;31595788;28;21063;-77
2023/05/26 12:44:11;;;;;;;9.68;3.22;;;;;;;28.38;78.03;99944.09;31604932;28;20135;-75
2023/05/26 12:59:16;;;;;;;6.47;3.00;;;;;;;28.37;75.85;99937.03;31595485;28;20058;-77
2023/05/26 13:14:21;;;;;;;5.85;3.22;;;;;;;27.94;78.49;99920.81;31588494;28;20044;-77
2023/05/26 13:29:23;;;;;;;7.93;4.10;;;;;;;27.70;87.62;99946.22;31607825;28;20527;-77
2023/05/26 13:44:26;;;;;;;14.48;3.58;;;;;;;26.74;100.00;99966.81;31589072;28;20459;-78
2023/05/26 13:59:29;;;;;;;10.65;4.07;;;;;;;25.83;100.00;99970.81;31606823;28;20076;-77
2023/05/26 14:14:32;;;;;;;7.70;4.85;;;;;;;25.48;100.00;99963.44;31594528;28;20524;-76
2023/05/26 14:29:35;;;;;;;9.55;3.70;;;;;;;25.59;100.00;99966.03;31615735;28;20064;-78
2023/05/26 14:44:37;;;;;;;9.70;3.15;;;;;;;25.69;100.00;99981.13;31596117;28;20074;-76
2023/05/26 14:59:39;;;;;;;10.17;5.90;;;;;;;25.17;100.00;99989.81;31603807;28;20059;-76
2023/05/26 15:14:41;;;;;;;6.97;4.47;;;;;;;24.81;100.00;99998.22;31601546;28;20151;-78
2023/05/26 15:29:43;;;;;;;6.03;4.03;;;;;;;24.19;100.00;99999.97;31594390;28;20058;-76
2023/05/26 15:44:45;;;;;;;;;;;;;;;24.08;100.00;100000.06;31585382;28;20439;-76
2023/05/26 15:59:48;;;;;;;7.22;3.90;;;;;;;24.10;100.00;100001.03;31584061;28;20014;-77
2023/05/26 16:14:49;;;;;;;4.80;3.63;;;;;;;24.07;100.00;100010.38;31606168;28;20048;-78
2023/05/26 16:29:57;;;;;;;7.60;4.47;;;;;;;23.91;100.00;100007.69;31608635;28;20398;-78
2023/05/26 16:44:59;;;;;;;8.37;4.73;;;;;;;24.02;100.00;99986.22;31611021;28;20052;-74
2023/05/26 17:00:01;;;;;;;8.30;4.00;;;;;;;23.91;100.00;100002.91;31618427;28;20495;-76
2023/05/26 17:15:07;;;;;;;10.37;4.83;;;;;;;23.81;100.00;100004.50;31598484;28;20509;-76
2023/05/26 17:30:10;;;;;;;6.55;4.03;;;;;;;23.57;100.00;99998.81;31588605;28;20090;-77
2023/05/26 17:45:12;;;;;;;13.17;6.27;;;;;;;23.32;100.00;100004.16;31613056;28;20500;-78
2023/05/26 18:00:14;;;;;;;9.88;4.78;;;;;;;23.26;100.00;100022.06;31558494;28;20153;-79
2023/05/26 18:15:17;;;;;;;14.83;5.53;;;;;;;23.05;100.00;100046.50;31609491;28;20044;-79
2023/05/26 18:30:19;;;;;;;13.17;7.23;;;;;;;22.74;100.00;100048.25;31615703;28;20059;-79
2023/05/26 18:45:21;;;;;;;11.10;6.40;;;;;;;22.75;100.00;100046.25;31598489;28;20044;-82
2023/05/26 19:00:23;;;;;;;13.48;8.95;;;;;;;22.62;100.00;100044.00;31607196;28;20060;-78
2023/05/26 19:15:27;;;;;;;17.75;7.13;;;;;;;22.56;100.00;100034.19;31580328;28;20048;-78
2023/05/26 19:30:29;;;;;;;12.68;6.30;;;;;;;22.46;100.00;100036.44;31591783;28;20056;-76
2023/05/26 19:45:32;;;;;;;12.70;6.45;;;;;;;22.45;100.00;100029.38;31588473;28;20040;-79
2023/05/26 20:00:35;;;;;;;12.85;6.57;;;;;;;22.31;100.00;100013.81;31634613;28;20063;-79
2023/05/26 20:15:37;;;;;;;10.75;6.40;;;;;;;21.94;100.00;100014.72;31612888;28;20048;-78
2023/05/26 20:30:39;;;;;;;10.73;6.22;;;;;;;21.40;100.00;100006.47;31599566;28;20056;-80
2023/05/26 20:45:42;;;;;;;10.52;4.70;;;;;;;21.07;100.00;99990.47;31629747;28;20040;-78
2023/05/26 21:00:45;;;;;;;5.90;3.60;;;;;;;20.94;100.00;99981.13;31618126;28;20718;-78
2023/05/26 21:15:46;;;;;;;7.40;3.22;;;;;;;21.02;100.00;99952.53;31623698;28;20047;-80
2023/05/26 21:30:49;;;;;;;9.55;3.83;;;;;;;20.81;100.00;99950.41;31599665;28;20581;-78
2023/05/26 21:45:51;;;;;;;7.30;4.10;;;;;;;20.93;100.00;99949.25;31581822;28;20044;-79
2023/05/26 22:00:53;;;;;;;7.38;3.72;;;;;;;20.92;100.00;99969.81;31593736;28;20145;-78
2023/05/26 22:15:56;;;;;;;10.93;4.47;;;;;;;20.91;100.00;99954.50;31569863;28;20060;-79
2023/05/26 22:31:00;;;;;;;10.10;5.13;;;;;;;20.64;100.00;99969.63;31585550;28;20070;-79
2023/05/26 22:46:03;;;;;;;7.50;4.13;;;;;;;20.51;100.00;99964.53;31574409;28;20420;-79
2023/05/26 23:01:05;;;;;;;9.68;3.75;;;;;;;20.59;100.00;99960.06;31572592;28;20052;-79
2023/05/26 23:16:07;;;;;;;8.82;4.63;;;;;;;20.49;100.00;99964.25;31593787;28;20040;-78
2023/05/26 23:31:09;;;;;;;10.68;4.05;;;;;;;20.35;100.00;99959.59;31590803;28;20044;-77
2023/05/26 23:46:14;;;;;;;8.20;4.03;;;;;;;20.17;100.00;99959.94;31583507;28;20044;-80
